Saratoga, California
Current Conditions -  °F | °C
As of 4:53 PM on Sunday 21 Dec 2014 (Local Time) from KSJC Reporting Station
Broken Clouds Broken Clouds  
Wind Chill: 61°   Ceiling: 2100
Heat Index: 61°   Visibility: 10mi
Dew Point: 57°   Wind: 9mph
Humidity: 87%   Direction: 310°NW
Pressure: 30.27"   Gusts: NA
Location:  37.27°N, 122.01°W
Report Text: KSJC 220053Z 31008KT 10SM FEW008 SCT013 BKN021 16/14 A3027 RMK AO2 SLP250 T01610139
Loading
Personal Weather Stations






























Interactive Weather Map New forecast layout! Learn more

10-Day Weather Forecast

Advertisements
Track Severe Weather on mobile